Blind Lake, Minnesota
Current Conditions -  °F | °C
As of 3:54 PM on Monday 22 Dec 2014 (Local Time) from KPWC Reporting Station
Light Snow Light Snow  
Wind Chill: 28°   Ceiling: 700
Heat Index: 34°   Visibility: 4mi
Dew Point: 34°   Wind: 7mph
Humidity: 100%   Direction: 110°ESE
Pressure: 29.64"   Gusts: NA
Location:  46.6535°N, 94.5389°W
Report Text: KPWC 222154Z AUTO 11006KT 4SM -SN OVC007 01/01 A2964 RMK AO2
Loading
Personal Weather Stations






























Interactive Weather Map New forecast layout! Learn more

10-Day Weather Forecast

Advertisements
Track Severe Weather on mobile